createdAt,value
2022-10-21T00:01:47.985Z,100986.34
2022-10-21T00:04:14.519Z,100982.28
2022-10-21T00:06:40.902Z,100988.31
2022-10-21T00:09:07.314Z,100984.63
2022-10-21T00:11:33.829Z,100981.13
2022-10-21T00:14:00.155Z,100972.09
2022-10-21T00:16:26.582Z,100968.75
2022-10-21T00:18:52.906Z,100972.78
2022-10-21T00:21:22.064Z,100959.03
2022-10-21T00:23:50.087Z,100970.81
2022-10-21T00:26:17.986Z,100961.94
2022-10-21T00:28:44.902Z,100953.56
2022-10-21T00:31:13.766Z,100957.59
2022-10-21T00:33:40.485Z,100953.22
2022-10-21T00:36:07.746Z,100949.84
2022-10-21T00:38:35.972Z,100949.56
2022-10-21T00:41:02.497Z,100940.56
2022-10-21T00:43:32.447Z,100944.63
2022-10-21T00:46:04.999Z,100933.25
2022-10-21T00:48:35.798Z,100924.94
2022-10-21T00:51:12.742Z,100921.34
2022-10-21T00:53:42.849Z,100918.22
2022-10-21T00:56:16.817Z,100916.94
2022-10-21T00:58:48.886Z,100908.91
2022-10-21T01:01:19.202Z,100909.44
2022-10-21T01:03:47.918Z,100904.94
2022-10-21T01:06:15.632Z,100906.75
2022-10-21T01:08:42.063Z,100889.44
2022-10-21T01:11:13.747Z,100900.53
2022-10-21T01:14:17.823Z,100905.94
2022-10-21T01:17:26.386Z,100892.72
2022-10-21T01:20:19.069Z,100883.09
2022-10-21T01:23:10.298Z,100878.44
2022-10-21T01:26:20.830Z,100871.63
2022-10-21T01:29:09.026Z,100864.59
2022-10-21T01:32:04.586Z,100864.81
2022-10-21T01:34:37.437Z,100851.88
2022-10-21T01:37:11.787Z,100844.84
2022-10-21T01:40:17.050Z,100845.63
2022-10-21T01:43:13.755Z,100851.44
2022-10-21T01:45:51.403Z,100840.28
2022-10-21T01:48:22.054Z,100848.84
2022-10-21T01:50:55.130Z,100848.69
2022-10-21T01:53:26.597Z,100836.06
2022-10-21T01:55:55.679Z,100852.81
2022-10-21T01:58:26.872Z,100850.97
2022-10-21T02:00:56.561Z,100837.06
2022-10-21T02:03:30.321Z,100841.97
2022-10-21T02:05:56.692Z,100849.16
2022-10-21T02:08:23.225Z,100835.69
2022-10-21T02:10:52.596Z,100844.09
2022-10-21T02:13:25.035Z,100827.50
2022-10-21T02:15:57.865Z,100824.31
2022-10-21T02:18:25.716Z,100824.63
2022-10-21T02:21:06.388Z,100826.16
2022-10-21T02:23:51.086Z,100809.25
2022-10-21T02:26:17.873Z,100801.28
2022-10-21T02:28:44.340Z,100802.97
2022-10-21T02:31:27.061Z,100808.47
2022-10-21T02:34:05.927Z,100801.63
2022-10-21T02:36:42.219Z,100799.09
2022-10-21T02:39:23.759Z,100799.59
2022-10-21T02:41:53.334Z,100809.78
2022-10-21T02:44:20.079Z,100802.44
2022-10-21T02:46:47.901Z,100778.97
2022-10-21T02:49:16.991Z,100794.25
2022-10-21T02:51:45.184Z,100790.06
2022-10-21T02:54:12.186Z,100784.88
2022-10-21T02:56:38.571Z,100797.91
2022-10-21T02:59:04.909Z,100786.38
2022-10-21T03:01:31.487Z,100785.56
2022-10-21T03:03:57.895Z,100793.75
2022-10-21T03:06:24.400Z,100781.66
2022-10-21T03:08:50.824Z,100793.41
2022-10-21T03:11:17.304Z,100775.16
2022-10-21T03:13:43.827Z,100782.25
2022-10-21T03:16:10.322Z,100777.75
2022-10-21T03:18:36.762Z,100778.13
2022-10-21T03:21:03.213Z,100782.78
2022-10-21T03:23:29.954Z,100776.00
2022-10-21T03:25:56.301Z,100777.00
2022-10-21T03:28:22.669Z,100766.75
2022-10-21T03:30:49.053Z,100764.28
2022-10-21T03:33:15.490Z,100767.97
2022-10-21T03:35:41.872Z,100757.72
2022-10-21T03:38:08.293Z,100759.88
2022-10-21T03:40:34.856Z,100757.19
2022-10-21T03:43:01.290Z,100756.34
2022-10-21T03:45:27.774Z,100753.97
2022-10-21T03:47:54.267Z,100751.78
2022-10-21T03:50:26.173Z,100743.38
2022-10-21T03:52:53.257Z,100729.47
2022-10-21T03:55:21.034Z,100725.72
2022-10-21T03:57:48.135Z,100723.72
2022-10-21T04:00:15.502Z,100734.75
2022-10-21T04:02:42.270Z,100724.13
2022-10-21T04:05:09.384Z,100736.50
2022-10-21T04:07:36.013Z,100741.16
2022-10-21T04:10:02.534Z,100743.59
2022-10-21T04:12:28.967Z,100739.41
2022-10-21T04:14:55.356Z,100734.91
2022-10-21T04:17:21.770Z,100743.22
2022-10-21T04:19:48.316Z,100726.47
2022-10-21T04:22:17.472Z,100726.63
2022-10-21T04:24:43.877Z,100728.31
2022-10-21T04:27:10.341Z,100726.78
2022-10-21T04:29:36.746Z,100726.38
2022-10-21T04:32:03.513Z,100743.13
2022-10-21T04:34:30.361Z,100733.31
2022-10-21T04:36:59.850Z,100726.28
2022-10-21T04:39:29.297Z,100732.47
2022-10-21T04:41:56.411Z,100725.75
2022-10-21T04:44:22.860Z,100731.94
2022-10-21T04:46:49.249Z,100729.56
2022-10-21T04:49:15.648Z,100713.28
2022-10-21T04:51:42.151Z,100718.63
2022-10-21T04:54:08.526Z,100712.75
2022-10-21T04:56:34.857Z,100715.41
2022-10-21T04:59:01.237Z,100711.38
2022-10-21T05:01:27.680Z,100705.50
2022-10-21T05:03:54.220Z,100709.84
2022-10-21T05:06:20.865Z,100704.66
2022-10-21T05:08:47.267Z,100690.91
2022-10-21T05:11:13.835Z,100694.25
2022-10-21T05:13:40.364Z,100705.94
2022-10-21T05:16:07.252Z,100699.91
2022-10-21T05:18:33.730Z,100691.59
2022-10-21T05:21:00.434Z,100686.25
2022-10-21T05:23:27.474Z,100675.84
2022-10-21T05:25:54.374Z,100685.69
2022-10-21T05:28:21.762Z,100691.19
2022-10-21T05:30:48.483Z,100690.34
2022-10-21T05:33:15.826Z,100692.22
2022-10-21T05:35:42.341Z,100682.81
2022-10-21T05:38:08.714Z,100687.16
2022-10-21T05:40:35.105Z,100689.69
2022-10-21T05:43:01.646Z,100683.50
2022-10-21T05:45:28.235Z,100686.03
2022-10-21T05:47:54.606Z,100680.69
2022-10-21T05:50:21.319Z,100679.50
2022-10-21T05:52:47.685Z,100681.88
2022-10-21T05:55:14.139Z,100679.06
2022-10-21T05:57:40.581Z,100665.31
2022-10-21T06:00:08.141Z,100676.94
2022-10-21T06:02:34.606Z,100682.84
2022-10-21T06:05:01.017Z,100677.78
2022-10-21T06:07:27.634Z,100685.38
2022-10-21T06:09:54.985Z,100686.03
2022-10-21T06:12:22.293Z,100695.56
2022-10-21T06:14:48.754Z,100691.06
2022-10-21T06:17:15.210Z,100677.16
2022-10-21T06:19:41.691Z,100679.09
2022-10-21T06:22:08.039Z,100660.38
2022-10-21T06:24:34.607Z,100661.94
2022-10-21T06:27:01.087Z,100672.13
2022-10-21T06:29:27.584Z,100672.69
2022-10-21T06:31:54.034Z,100676.03
2022-10-21T06:34:20.534Z,100679.94
2022-10-21T06:36:46.975Z,100665.19
2022-10-21T06:39:13.392Z,100654.06
2022-10-21T06:41:39.752Z,100675.53
2022-10-21T06:44:06.181Z,100676.06
2022-10-21T06:46:32.555Z,100685.00
2022-10-21T06:48:58.933Z,100664.78
2022-10-21T06:51:25.574Z,100677.06
2022-10-21T06:53:54.625Z,100679.09
2022-10-21T06:56:21.990Z,100673.28
2022-10-21T06:58:50.222Z,100660.44
2022-10-21T07:01:33.428Z,100679.38
2022-10-21T07:04:01.548Z,100670.88
2022-10-21T07:06:28.019Z,100667.91
2022-10-21T07:08:58.274Z,100681.31
2022-10-21T07:11:26.072Z,100696.75
2022-10-21T07:13:52.491Z,100698.97
2022-10-21T07:16:33.318Z,100706.50
2022-10-21T07:19:00.207Z,100714.22
2022-10-21T07:21:29.649Z,100693.19
2022-10-21T07:23:59.305Z,100696.72
2022-10-21T07:26:28.232Z,100705.28
2022-10-21T07:28:57.915Z,100709.44
2022-10-21T07:31:24.519Z,100711.81
2022-10-21T07:33:51.292Z,100692.38
2022-10-21T07:36:21.708Z,100704.69
2022-10-21T07:38:49.760Z,100698.66
2022-10-21T07:41:19.956Z,100702.84
2022-10-21T07:43:46.886Z,100701.84
2022-10-21T07:46:13.858Z,100694.81
2022-10-21T07:48:40.234Z,100680.44
2022-10-21T07:51:12.421Z,100688.97
2022-10-21T07:53:40.226Z,100696.69
2022-10-21T07:56:06.779Z,100700.88
2022-10-21T07:58:33.639Z,100700.88
2022-10-21T08:01:01.927Z,100697.72
2022-10-21T08:03:28.810Z,100706.28
2022-10-21T08:05:56.129Z,100717.66
2022-10-21T08:08:28.482Z,100716.03
2022-10-21T08:10:56.031Z,100716.22
2022-10-21T08:13:23.240Z,100712.94
2022-10-21T08:15:52.130Z,100709.63
2022-10-21T08:18:19.493Z,100699.38
2022-10-21T08:20:47.783Z,100690.72
2022-10-21T08:23:16.980Z,100706.63
2022-10-21T08:25:50.522Z,100712.03
2022-10-21T08:28:17.975Z,100715.25
2022-10-21T08:30:44.739Z,100706.19
2022-10-21T08:33:12.368Z,100712.19
2022-10-21T08:35:39.660Z,100710.38
2022-10-21T08:40:41.316Z,100731.16
2022-10-21T08:43:22.275Z,100722.97
2022-10-21T08:45:54.508Z,100721.81
2022-10-21T08:48:26.119Z,100716.13
2022-10-21T08:50:56.117Z,100705.91
2022-10-21T08:53:24.393Z,100696.53
2022-10-21T08:55:56.064Z,100702.03
2022-10-21T08:58:23.733Z,100693.66
2022-10-21T09:01:03.259Z,100702.72
2022-10-21T09:03:54.363Z,100692.66
2022-10-21T09:06:27.946Z,100693.00
2022-10-21T09:08:57.423Z,100685.91
2022-10-21T09:11:33.074Z,100679.75
2022-10-21T09:14:17.090Z,100682.91
2022-10-21T09:17:01.051Z,100676.16
2022-10-21T09:20:01.853Z,100669.06
2022-10-21T09:22:46.919Z,100669.38
2022-10-21T09:25:25.441Z,100667.31
2022-10-21T09:27:57.236Z,100670.31
2022-10-21T09:30:24.822Z,100673.94
2022-10-21T09:32:56.432Z,100658.09
2022-10-21T09:35:23.916Z,100664.91
2022-10-21T09:38:02.270Z,100647.75
2022-10-21T09:40:30.921Z,100650.59
2022-10-21T09:43:00.609Z,100652.44
2022-10-21T09:45:37.638Z,100651.25
2022-10-21T09:48:50.247Z,100656.25
2022-10-21T09:51:28.756Z,100657.22
2022-10-21T09:54:17.913Z,100650.56
2022-10-21T09:56:49.946Z,100647.53
2022-10-21T09:59:19.560Z,100663.38
2022-10-21T10:01:46.468Z,100652.34
2022-10-21T10:04:29.347Z,100654.88
2022-10-21T10:06:56.659Z,100666.97
2022-10-21T10:09:34.255Z,100676.22
2022-10-21T10:12:12.481Z,100664.59
2022-10-21T10:14:41.209Z,100665.63
2022-10-21T10:17:25.607Z,100664.75
2022-10-21T10:20:07.319Z,100669.78
2022-10-21T10:22:41.727Z,100670.06
2022-10-21T10:25:14.375Z,100669.53
2022-10-21T10:27:59.283Z,100671.88
2022-10-21T10:30:36.123Z,100663.78
2022-10-21T10:33:09.428Z,100674.81
2022-10-21T10:35:37.849Z,100672.25
2022-10-21T10:38:05.350Z,100665.72
2022-10-21T10:40:41.741Z,100667.44
2022-10-21T10:43:21.104Z,100660.97
2022-10-21T10:45:54.003Z,100665.97
2022-10-21T10:48:25.418Z,100664.84
2022-10-21T10:50:51.899Z,100661.81
2022-10-21T10:53:32.053Z,100656.66
2022-10-21T10:56:14.931Z,100664.78
2022-10-21T10:59:01.835Z,100646.25
2022-10-21T11:01:34.287Z,100651.59
2022-10-21T11:04:21.114Z,100648.03
2022-10-21T11:06:52.363Z,100643.31
2022-10-21T11:09:22.608Z,100647.09
2022-10-21T11:11:54.678Z,100642.41
2022-10-21T11:14:22.833Z,100647.13
2022-10-21T11:17:01.047Z,100646.97
2022-10-21T11:19:39.780Z,100640.63
2022-10-21T11:22:34.176Z,100637.94
2022-10-21T11:25:21.977Z,100640.81
2022-10-21T11:27:59.635Z,100648.88
2022-10-21T11:30:39.196Z,100634.97
2022-10-21T11:33:19.071Z,100635.78
2022-10-21T11:35:59.333Z,100629.59
2022-10-21T11:38:50.324Z,100622.94
2022-10-21T11:41:31.911Z,100617.94
2022-10-21T11:44:31.498Z,100625.00
2022-10-21T11:47:09.477Z,100618.91
2022-10-21T11:49:50.547Z,100628.78
2022-10-21T11:52:38.730Z,100618.59
2022-10-21T11:55:27.329Z,100622.72
2022-10-21T11:58:08.034Z,100617.06
2022-10-21T12:00:48.902Z,100620.59
2022-10-21T12:03:44.032Z,100612.50
2022-10-21T12:06:34.653Z,100614.38
2022-10-21T12:09:06.208Z,100606.94
2022-10-21T12:11:44.610Z,100600.91
2022-10-21T12:14:31.059Z,100605.16
2022-10-21T12:17:01.538Z,100606.84
2022-10-21T12:19:28.325Z,100605.28
2022-10-21T12:21:55.093Z,100603.06
2022-10-21T12:24:38.453Z,100602.59
2022-10-21T12:27:25.934Z,100602.34
2022-10-21T12:30:23.475Z,100602.06
2022-10-21T12:33:12.825Z,100601.97
2022-10-21T12:35:50.421Z,100600.53
2022-10-21T12:38:43.725Z,100610.31
2022-10-21T12:41:26.195Z,100610.19
2022-10-21T12:43:53.911Z,100600.03
2022-10-21T12:46:26.226Z,100600.22
2022-10-21T12:48:52.935Z,100611.75
2022-10-21T12:51:25.922Z,100605.81
2022-10-21T12:53:58.292Z,100617.78
2022-10-21T12:56:42.615Z,100617.31
2022-10-21T12:59:44.663Z,100613.00
2022-10-21T13:02:25.025Z,100607.34
2022-10-21T13:04:54.862Z,100596.09
2022-10-21T13:07:21.178Z,100616.94
2022-10-21T13:09:56.712Z,100614.88
2022-10-21T13:12:23.081Z,100610.09
2022-10-21T13:14:52.090Z,100599.09
2022-10-21T13:17:21.438Z,100614.03
2022-10-21T13:19:48.851Z,100617.19
2022-10-21T13:22:20.064Z,100609.28
2022-10-21T13:24:47.119Z,100618.09
2022-10-21T13:27:35.858Z,100615.16
2022-10-21T13:30:03.041Z,100624.41
2022-10-21T13:33:02.672Z,100623.13
2022-10-21T13:35:36.765Z,100614.06
2022-10-21T13:38:21.014Z,100623.25
2022-10-21T13:40:51.122Z,100627.09
2022-10-21T13:43:20.113Z,100625.72
2022-10-21T13:45:49.883Z,100626.72
2022-10-21T13:48:19.760Z,100626.34
2022-10-21T13:50:48.652Z,100637.47
2022-10-21T13:53:17.728Z,100628.47
2022-10-21T13:56:01.762Z,100622.25
2022-10-21T13:58:30.428Z,100628.13
2022-10-21T14:00:59.003Z,100617.53
2022-10-21T14:03:26.543Z,100615.91
2022-10-21T14:05:58.145Z,100626.97
2022-10-21T14:08:34.123Z,100633.44
2022-10-21T14:11:24.110Z,100638.03
2022-10-21T14:13:51.321Z,100630.38
2022-10-21T14:16:40.919Z,100631.38
2022-10-21T14:19:14.441Z,100637.25
2022-10-21T14:21:45.199Z,100626.81
2022-10-21T14:24:38.951Z,100621.81
2022-10-21T14:27:06.501Z,100618.06
2022-10-21T14:29:35.635Z,100605.13
2022-10-21T14:32:03.550Z,100605.78
2022-10-21T14:34:32.868Z,100613.28
2022-10-21T14:37:23.147Z,100617.88
2022-10-21T14:39:49.886Z,100603.28
2022-10-21T14:42:25.582Z,100598.69
2022-10-21T14:45:02.497Z,100595.56
2022-10-21T14:47:29.028Z,100600.56
2022-10-21T14:49:59.765Z,100601.38
2022-10-21T14:52:42.599Z,100608.66
2022-10-21T14:55:14.248Z,100598.22
2022-10-21T14:57:45.550Z,100614.00
2022-10-21T15:00:30.201Z,100612.53
2022-10-21T15:02:58.372Z,100601.50
2022-10-21T15:05:37.663Z,100608.38
2022-10-21T15:08:19.190Z,100605.22
2022-10-21T15:10:46.499Z,100607.06
2022-10-21T15:13:17.206Z,100602.69
2022-10-21T15:15:55.087Z,100598.31
2022-10-21T15:18:43.779Z,100611.00
2022-10-21T15:21:13.785Z,100596.00
2022-10-21T15:23:43.361Z,100603.47
2022-10-21T15:26:19.158Z,100607.22
2022-10-21T15:28:45.663Z,100601.38
2022-10-21T15:31:20.304Z,100600.34
2022-10-21T15:33:48.819Z,100603.63
2022-10-21T15:36:16.070Z,100593.41
2022-10-21T15:38:46.829Z,100595.69
2022-10-21T15:41:18.883Z,100591.28
2022-10-21T15:43:57.131Z,100603.75
2022-10-21T15:46:25.659Z,100599.97
2022-10-21T15:48:52.753Z,100594.09
2022-10-21T15:51:19.820Z,100582.00
2022-10-21T15:53:46.231Z,100596.78
2022-10-21T15:56:17.070Z,100602.38
2022-10-21T15:58:43.511Z,100597.31
2022-10-21T16:01:15.942Z,100603.09
2022-10-21T16:03:43.450Z,100603.25
2022-10-21T16:06:19.715Z,100605.72
2022-10-21T16:08:46.883Z,100598.81
2022-10-21T16:11:25.606Z,100593.34
2022-10-21T16:14:01.476Z,100608.47
2022-10-21T16:16:27.965Z,100593.00
2022-10-21T16:18:54.322Z,100599.38
2022-10-21T16:21:22.592Z,100601.03
2022-10-21T16:23:49.842Z,100619.28
2022-10-21T16:26:23.647Z,100614.91
2022-10-21T16:28:51.645Z,100620.88
2022-10-21T16:31:18.907Z,100610.69
2022-10-21T16:33:45.661Z,100613.56
2022-10-21T16:36:23.924Z,100615.44
2022-10-21T16:38:51.250Z,100609.50
2022-10-21T16:41:28.722Z,100622.22
2022-10-21T16:43:56.270Z,100606.91
2022-10-21T16:46:41.783Z,100615.00
2022-10-21T16:49:14.841Z,100631.47
2022-10-21T16:51:45.992Z,100615.56
2022-10-21T16:54:13.114Z,100620.97
2022-10-21T16:56:39.580Z,100624.31
2022-10-21T16:59:06.113Z,100613.06
2022-10-21T17:01:32.726Z,100612.44
2022-10-21T17:03:59.171Z,100604.91
2022-10-21T17:06:26.546Z,100620.72
2022-10-21T17:08:55.242Z,100619.88
2022-10-21T17:11:25.269Z,100616.28
2022-10-21T17:13:51.898Z,100618.13
2022-10-21T17:16:20.062Z,100626.50
2022-10-21T17:18:47.694Z,100633.75
2022-10-21T17:21:26.324Z,100612.28
2022-10-21T17:23:53.824Z,100634.78
2022-10-21T17:26:20.631Z,100624.38
2022-10-21T17:28:47.354Z,100635.63
2022-10-21T17:31:19.900Z,100634.59
2022-10-21T17:33:47.469Z,100629.75
2022-10-21T17:36:15.649Z,100639.78
2022-10-21T17:38:42.100Z,100645.84
2022-10-21T17:41:09.866Z,100650.03
2022-10-21T17:43:36.970Z,100646.69
2022-10-21T17:46:04.247Z,100636.91
2022-10-21T17:48:32.159Z,100634.66
2022-10-21T17:51:01.663Z,100651.09
2022-10-21T17:53:30.064Z,100654.25
2022-10-21T17:56:00.800Z,100654.25
2022-10-21T17:58:27.891Z,100655.56
2022-10-21T18:00:57.980Z,100661.19
2022-10-21T18:03:25.207Z,100661.34
2022-10-21T18:05:52.441Z,100640.78
2022-10-21T18:08:19.027Z,100650.69
2022-10-21T18:10:53.238Z,100634.22
2022-10-21T18:13:19.895Z,100650.97
2022-10-21T18:15:46.302Z,100655.97
2022-10-21T18:18:12.925Z,100636.19
2022-10-21T18:20:39.401Z,100642.88
2022-10-21T18:23:05.766Z,100642.72
2022-10-21T18:25:35.374Z,100638.56
2022-10-21T18:28:01.835Z,100643.56
2022-10-21T18:30:28.343Z,100643.31
2022-10-21T18:32:54.767Z,100648.41
2022-10-21T18:35:21.131Z,100626.72
2022-10-21T18:37:47.773Z,100639.09
2022-10-21T18:40:14.273Z,100639.91
2022-10-21T18:42:40.795Z,100635.97
2022-10-21T18:45:07.603Z,100643.88
2022-10-21T18:47:34.706Z,100634.09
2022-10-21T18:50:05.072Z,100638.09
2022-10-21T18:52:31.430Z,100637.25
2022-10-21T18:54:57.987Z,100635.22
2022-10-21T18:57:24.492Z,100630.66
2022-10-21T18:59:50.910Z,100637.34
2022-10-21T19:02:20.950Z,100637.75
2022-10-21T19:04:47.744Z,100640.59
2022-10-21T19:07:14.517Z,100639.19
2022-10-21T19:09:40.886Z,100637.72
2022-10-21T19:12:10.663Z,100655.19
2022-10-21T19:14:40.887Z,100649.63
2022-10-21T19:17:07.411Z,100658.94
2022-10-21T19:19:37.152Z,100669.72
2022-10-21T19:22:05.711Z,100671.97
2022-10-21T19:24:32.106Z,100673.66
2022-10-21T19:26:59.002Z,100664.63
2022-10-21T19:29:26.016Z,100673.16
2022-10-21T19:31:52.743Z,100676.59
2022-10-21T19:34:22.379Z,100683.66
2022-10-21T19:36:49.736Z,100687.41
2022-10-21T19:39:16.319Z,100687.50
2022-10-21T19:41:43.226Z,100698.72
2022-10-21T19:44:09.873Z,100706.81
2022-10-21T19:46:36.927Z,100702.13
2022-10-21T19:49:05.241Z,100705.84
2022-10-21T19:51:32.480Z,100694.78
2022-10-21T19:53:59.363Z,100710.78
2022-10-21T19:56:29.612Z,100708.09
2022-10-21T19:58:57.312Z,100709.09
2022-10-21T20:01:26.283Z,100714.06
2022-10-21T20:03:54.362Z,100703.38
2022-10-21T20:06:30.033Z,100713.03
2022-10-21T20:09:00.382Z,100685.66
2022-10-21T20:11:27.960Z,100717.13
2022-10-21T20:13:55.253Z,100714.44
2022-10-21T20:16:27.338Z,100713.78
2022-10-21T20:18:54.909Z,100705.81
2022-10-21T20:21:22.880Z,100717.06
2022-10-21T20:23:50.549Z,100717.69
2022-10-21T20:26:16.995Z,100715.56
2022-10-21T20:28:43.453Z,100725.13
2022-10-21T20:31:12.309Z,100722.63
2022-10-21T20:33:42.093Z,100702.84
2022-10-21T20:36:20.730Z,100715.19
2022-10-21T20:38:47.864Z,100717.44
2022-10-21T20:41:17.731Z,100705.72
2022-10-21T20:43:44.296Z,100703.69
2022-10-21T20:46:13.077Z,100714.28
2022-10-21T20:48:44.692Z,100703.88
2022-10-21T20:51:16.539Z,100701.25
2022-10-21T20:53:50.232Z,100714.84
2022-10-21T20:56:16.822Z,100713.72
2022-10-21T20:58:43.401Z,100717.06
2022-10-21T21:01:17.872Z,100708.75
2022-10-21T21:03:45.555Z,100716.44
2022-10-21T21:06:12.571Z,100706.41
2022-10-21T21:08:48.664Z,100710.78
2022-10-21T21:11:25.049Z,100706.97
2022-10-21T21:13:51.425Z,100703.44
2022-10-21T21:16:20.340Z,100714.69
2022-10-21T21:18:51.615Z,100708.63
2022-10-21T21:21:20.367Z,100700.19
2022-10-21T21:23:46.807Z,100711.03
2022-10-21T21:26:17.661Z,100710.63
2022-10-21T21:28:45.434Z,100698.53
2022-10-21T21:31:12.788Z,100691.75
2022-10-21T21:33:39.826Z,100697.13
2022-10-21T21:36:06.868Z,100706.69
2022-10-21T21:38:34.709Z,100680.41
2022-10-21T21:41:03.550Z,100696.84
2022-10-21T21:43:32.754Z,100694.06
2022-10-21T21:45:59.716Z,100692.78
2022-10-21T21:48:26.994Z,100694.81
2022-10-21T21:51:04.568Z,100703.91
2022-10-21T21:53:31.060Z,100689.22
2022-10-21T21:56:03.280Z,100707.88
2022-10-21T21:58:30.342Z,100702.00
2022-10-21T22:00:56.693Z,100703.41
2022-10-21T22:03:23.416Z,100704.28
2022-10-21T22:05:50.086Z,100708.88
2022-10-21T22:08:16.471Z,100718.81
2022-10-21T22:10:42.926Z,100714.25
2022-10-21T22:13:09.403Z,100719.91
2022-10-21T22:15:47.445Z,100709.25
2022-10-21T22:18:14.747Z,100713.50
2022-10-21T22:20:41.158Z,100732.34
2022-10-21T22:23:07.592Z,100725.53
2022-10-21T22:25:34.005Z,100710.56
2022-10-21T22:28:00.499Z,100718.09
2022-10-21T22:30:26.849Z,100718.75
2022-10-21T22:32:53.230Z,100732.34
2022-10-21T22:35:19.873Z,100729.25
2022-10-21T22:37:46.288Z,100729.91
2022-10-21T22:40:12.824Z,100731.41
2022-10-21T22:42:39.257Z,100727.03
2022-10-21T22:45:06.360Z,100729.00
2022-10-21T22:47:32.861Z,100732.19
2022-10-21T22:49:59.288Z,100727.16
2022-10-21T22:52:25.742Z,100734.66
2022-10-21T22:54:52.113Z,100723.69
2022-10-21T22:57:20.540Z,100717.88
2022-10-21T22:59:52.051Z,100729.56
2022-10-21T23:02:19.837Z,100729.75
2022-10-21T23:04:46.206Z,100743.31
2022-10-21T23:07:12.862Z,100734.59
2022-10-21T23:09:39.243Z,100735.25
2022-10-21T23:12:05.751Z,100715.25
2022-10-21T23:14:32.165Z,100721.94
2022-10-21T23:16:58.530Z,100737.56
2022-10-21T23:19:24.965Z,100735.31
2022-10-21T23:21:51.326Z,100750.22
2022-10-21T23:24:17.727Z,100751.31
2022-10-21T23:26:44.105Z,100749.81
2022-10-21T23:29:10.572Z,100752.50
2022-10-21T23:31:36.969Z,100748.78
2022-10-21T23:34:05.845Z,100739.44
2022-10-21T23:36:33.465Z,100739.44
2022-10-21T23:39:00.177Z,100736.34
2022-10-21T23:41:26.581Z,100744.41
2022-10-21T23:43:53.165Z,100737.16
2022-10-21T23:46:21.004Z,100733.84
2022-10-21T23:48:47.436Z,100725.53
2022-10-21T23:51:13.864Z,100723.25
2022-10-21T23:53:40.453Z,100718.50
2022-10-21T23:56:07.316Z,100726.03
2022-10-21T23:58:33.829Z,100731.03
